Time;durP1;ratioP1;P1;durP2;ratioP2;P2;SDS_P1;SDS_P2;PMS_P1;PMS_P2;Temp;Humidity;BMP_temperature;BMP_pressure;BME280_temperature;BME280_humidity;BME280_pressure;Samples;Min_cycle;Max_cycle;Signal;HPM_P1;HPM_P2
2022/09/14 00:01:55;;;;;;;9.13;2.20;;;;;;;16.34;71.70;100828.38;5029748;28;20026;-81
2022/09/14 00:04:21;;;;;;;6.95;2.13;;;;;;;16.19;71.57;100810.72;5008339;28;20034;-81
2022/09/14 00:06:47;;;;;;;6.45;2.00;;;;;;;16.24;71.66;100812.84;5024425;28;20030;-81
2022/09/14 00:09:18;;;;;;;7.47;2.00;;;;;;;16.27;72.15;100817.75;5028882;28;20033;-81
2022/09/14 00:11:44;;;;;;;9.25;1.80;;;;;;;16.35;71.66;100814.34;5028974;28;20484;-82
2022/09/14 00:14:10;;;;;;;7.32;1.92;;;;;;;16.26;72.11;100821.34;5028958;28;20026;-82
2022/09/14 00:16:38;;;;;;;7.70;2.03;;;;;;;16.25;71.82;100809.25;5028440;28;20481;-82
2022/09/14 00:19:24;;;;;;;8.63;1.90;;;;;;;16.39;72.00;100816.44;5019781;28;20031;-82
2022/09/14 00:21:53;;;;;;;8.07;2.30;;;;;;;16.37;71.72;100814.97;5010434;28;20471;-82
2022/09/14 00:24:19;;;;;;;6.68;2.00;;;;;;;16.32;71.68;100805.00;5015242;28;20022;-82
2022/09/14 00:26:44;;;;;;;6.75;2.00;;;;;;;16.23;71.29;100799.91;5026823;28;20582;-81
2022/09/14 00:29:10;;;;;;;8.45;1.90;;;;;;;16.19;71.90;100794.19;5013913;28;20475;-82
2022/09/14 00:31:37;;;;;;;8.52;2.28;;;;;;;16.17;71.84;100801.38;5014805;28;20034;-82
2022/09/14 00:34:05;;;;;;;9.35;2.15;;;;;;;16.21;71.89;100800.06;5029385;28;20025;-82
2022/09/14 00:36:32;;;;;;;8.27;2.30;;;;;;;16.26;72.24;100783.88;5010501;28;20579;-82
2022/09/14 00:38:59;;;;;;;9.63;2.15;;;;;;;16.33;71.67;100788.28;5028041;28;20517;-81
2022/09/14 00:41:33;;;;;;;5.97;1.80;;;;;;;16.24;72.18;100781.44;5015207;28;20179;-82
2022/09/14 00:44:00;;;;;;;8.48;2.00;;;;;;;16.14;72.56;100775.53;5028637;28;20057;-82
2022/09/14 00:46:29;;;;;;;8.15;1.95;;;;;;;16.17;72.15;100776.06;5026974;28;20493;-83
2022/09/14 00:48:58;;;;;;;8.07;2.20;;;;;;;16.11;72.03;100765.38;5028516;28;20038;-81
2022/09/14 00:51:25;;;;;;;7.85;1.90;;;;;;;16.07;71.89;100754.44;5009761;28;20025;-81
2022/09/14 00:53:50;;;;;;;8.85;2.20;;;;;;;16.11;72.16;100749.69;5010950;28;20413;-82
2022/09/14 00:56:16;;;;;;;7.07;1.98;;;;;;;16.16;72.56;100763.91;5028077;28;20033;-81
2022/09/14 00:58:44;;;;;;;7.30;1.85;;;;;;;16.14;72.27;100755.44;5021556;28;20040;-82
2022/09/14 01:01:10;;;;;;;7.43;2.00;;;;;;;16.02;73.32;100753.31;5028700;28;20504;-82
2022/09/14 01:03:36;;;;;;;9.20;2.20;;;;;;;16.06;72.85;100752.81;5027883;28;20033;-81
2022/09/14 01:06:17;;;;;;;9.05;2.15;;;;;;;16.06;73.47;100752.81;5017675;28;20030;-82
2022/09/14 01:08:48;;;;;;;7.70;2.25;;;;;;;16.05;74.28;100748.53;5027766;28;20044;-82
2022/09/14 01:11:41;;;;;;;8.63;1.98;;;;;;;16.12;74.81;100751.34;5010464;28;20540;-84
2022/09/14 01:14:26;;;;;;;8.63;2.17;;;;;;;16.07;74.29;100749.22;4998475;28;20032;-83
2022/09/14 01:17:18;;;;;;;6.05;1.80;;;;;;;16.09;75.02;100751.66;5009863;28;20207;-81
2022/09/14 01:20:02;;;;;;;7.63;1.88;;;;;;;16.09;74.57;100747.25;5017835;28;20029;-81
2022/09/14 01:22:38;;;;;;;8.15;1.95;;;;;;;16.11;74.57;100741.84;5027451;28;20040;-81
2022/09/14 01:25:31;;;;;;;6.72;2.08;;;;;;;16.08;74.85;100744.78;5016828;28;20069;-81
2022/09/14 01:28:02;;;;;;;10.65;2.20;;;;;;;16.01;75.13;100733.34;5028688;28;20065;-81
2022/09/14 01:30:31;;;;;;;5.95;1.83;;;;;;;16.12;75.73;100740.88;5026644;28;20033;-81
2022/09/14 01:33:18;;;;;;;8.60;2.58;;;;;;;16.07;74.81;100732.69;5016357;28;20045;-81
2022/09/14 01:35:57;;;;;;;6.60;1.88;;;;;;;16.04;74.85;100727.78;5012777;28;20473;-81
2022/09/14 01:38:53;;;;;;;7.95;1.90;;;;;;;16.12;74.81;100748.72;5072164;27;20386;-81
2022/09/14 01:41:23;;;;;;;7.57;1.95;;;;;;;15.98;75.66;100738.91;5077562;28;20048;-81
2022/09/14 01:43:53;;;;;;;5.60;1.80;;;;;;;15.91;74.83;100738.72;5092513;28;20119;-81
2022/09/14 01:46:25;;;;;;;9.07;2.08;;;;;;;15.92;75.18;100730.72;5084147;28;20039;-81
2022/09/14 01:49:01;;;;;;;9.25;2.30;;;;;;;15.92;75.46;100730.72;5079319;28;20487;-81
2022/09/14 01:51:38;;;;;;;6.78;2.00;;;;;;;15.87;76.83;100732.19;5086307;28;20028;-80
2022/09/14 01:54:16;;;;;;;10.35;2.20;;;;;;;15.93;76.66;100732.34;5072162;28;20143;-81
2022/09/14 01:56:50;;;;;;;8.73;2.20;;;;;;;15.90;76.25;100729.25;5077721;28;20436;-80
2022/09/14 01:59:21;;;;;;;7.35;1.90;;;;;;;15.82;76.79;100730.03;5072833;28;20492;-80
2022/09/14 02:01:59;;;;;;;7.15;2.20;;;;;;;15.75;77.52;100723.00;5077259;28;20058;-80
2022/09/14 02:04:33;;;;;;;9.70;2.33;;;;;;;15.61;78.65;100727.06;5059645;28;20382;-80
2022/09/14 02:06:58;;;;;;;7.40;2.20;;;;;;;15.66;77.73;100724.81;5086318;28;20788;-79
2022/09/14 02:09:25;;;;;;;7.85;2.03;;;;;;;15.70;78.47;100725.28;5083291;28;20024;-79
2022/09/14 02:11:53;;;;;;;9.50;2.38;;;;;;;15.68;79.26;100722.03;5090189;28;20122;-78
2022/09/14 02:14:18;;;;;;;12.65;2.60;;;;;;;15.55;79.83;100712.00;5099134;28;20062;-79
2022/09/14 02:16:45;;;;;;;9.48;2.42;;;;;;;15.50;79.03;100712.47;5086244;28;20024;-80
2022/09/14 02:19:12;;;;;;;8.55;2.10;;;;;;;15.45;79.95;100709.53;5071730;28;20154;-81
2022/09/14 02:21:38;;;;;;;10.10;2.35;;;;;;;15.32;81.37;100712.59;5083192;28;20039;-81
2022/09/14 02:24:04;;;;;;;10.30;2.53;;;;;;;15.36;82.34;100702.63;5073833;28;20028;-80
2022/09/14 02:26:30;;;;;;;8.82;2.38;;;;;;;15.35;82.59;100701.81;5079670;28;20091;-81
2022/09/14 02:28:56;;;;;;;11.05;2.42;;;;;;;15.26;82.76;100697.56;5090704;28;20483;-81
2022/09/14 02:31:49;;;;;;;9.93;2.55;;;;;;;15.37;82.17;100694.66;5066118;28;20032;-79
2022/09/14 02:34:38;;;;;;;8.70;2.17;;;;;;;15.26;82.37;100671.44;5063305;28;20025;-80
2022/09/14 02:37:43;;;;;;;8.25;2.30;;;;;;;15.33;81.36;100682.88;5087567;28;20039;-80
2022/09/14 02:40:22;;;;;;;7.68;2.05;;;;;;;15.23;82.56;100691.81;5049017;28;20036;-80
2022/09/14 02:42:58;;;;;;;7.15;2.10;;;;;;;15.16;83.09;100686.41;5064823;28;20071;-80
2022/09/14 02:45:39;;;;;;;7.97;2.15;;;;;;;15.16;82.63;100696.06;5067225;28;20038;-78
2022/09/14 02:48:19;;;;;;;8.20;2.28;;;;;;;15.11;82.92;100691.28;5060095;28;20028;-81
2022/09/14 02:50:58;;;;;;;8.95;2.13;;;;;;;15.14;82.65;100691.00;5057663;28;20468;-80
2022/09/14 02:53:35;;;;;;;8.00;2.28;;;;;;;15.06;83.57;100685.72;5049251;28;20049;-80
2022/09/14 02:56:06;;;;;;;7.38;2.20;;;;;;;15.22;82.21;100696.22;5058577;28;20495;-79
2022/09/14 02:58:34;;;;;;;7.50;2.25;;;;;;;14.99;81.54;100684.72;5069168;28;20118;-79
2022/09/14 03:00:59;;;;;;;6.10;1.75;;;;;;;15.07;81.62;100682.13;5057000;28;20056;-79
2022/09/14 03:03:25;;;;;;;5.78;1.80;;;;;;;14.98;82.51;100688.31;5056329;28;20233;-79
2022/09/14 03:05:50;;;;;;;7.78;1.90;;;;;;;15.02;82.08;100693.03;5069155;28;20025;-79
2022/09/14 03:08:15;;;;;;;4.75;1.70;;;;;;;14.96;83.55;100687.63;5065713;28;20515;-79
2022/09/14 03:10:42;;;;;;;7.53;2.10;;;;;;;14.99;83.51;100695.16;5068933;28;20093;-79
2022/09/14 03:13:08;;;;;;;7.72;2.13;;;;;;;14.90;83.74;100685.66;5069189;28;20024;-78
2022/09/14 03:15:34;;;;;;;7.80;2.00;;;;;;;14.99;84.60;100692.56;5060798;28;20043;-79
2022/09/14 03:17:59;;;;;;;6.95;2.15;;;;;;;14.80;85.65;100681.38;5057798;28;20532;-78
2022/09/14 03:20:27;;;;;;;7.43;2.03;;;;;;;14.88;85.27;100673.56;5053487;28;20037;-78
2022/09/14 03:22:53;;;;;;;8.05;1.98;;;;;;;15.02;84.47;100679.16;5062537;28;20044;-79
2022/09/14 03:25:21;;;;;;;7.50;2.00;;;;;;;15.03;83.88;100670.38;5069248;28;20032;-78
2022/09/14 03:27:49;;;;;;;7.68;2.22;;;;;;;14.91;84.40;100655.94;5057921;28;20024;-79
2022/09/14 03:30:15;;;;;;;9.20;2.60;;;;;;;14.78;84.83;100657.19;5066875;28;20503;-79
2022/09/14 03:32:40;;;;;;;6.20;2.17;;;;;;;14.65;85.25;100656.81;5083052;28;20028;-79
2022/09/14 03:35:06;;;;;;;8.05;2.40;;;;;;;14.77;85.30;100655.56;5069820;28;20460;-78
2022/09/14 03:37:35;;;;;;;7.72;2.15;;;;;;;14.77;85.24;100658.19;5058940;28;20053;-78
2022/09/14 03:40:00;;;;;;;11.18;2.20;;;;;;;14.80;85.92;100655.28;5067791;28;20150;-78
2022/09/14 03:42:26;;;;;;;7.88;2.35;;;;;;;14.79;85.60;100647.56;5063430;28;20119;-77
2022/09/14 03:44:51;;;;;;;7.32;2.15;;;;;;;14.69;85.09;100647.72;5063199;28;20036;-78
2022/09/14 03:47:16;;;;;;;6.03;1.80;;;;;;;14.70;84.68;100644.13;5057744;28;20094;-80
2022/09/14 03:49:42;;;;;;;7.72;1.90;;;;;;;14.71;84.81;100650.16;5060507;28;20028;-78
2022/09/14 03:52:07;;;;;;;6.95;2.03;;;;;;;14.67;85.58;100644.41;5055772;28;20035;-78
2022/09/14 03:54:32;;;;;;;7.57;2.30;;;;;;;14.67;85.46;100639.19;5056140;28;20519;-77
2022/09/14 03:56:58;;;;;;;8.23;2.00;;;;;;;14.60;86.24;100648.63;5056011;28;20039;-78
2022/09/14 03:59:23;;;;;;;6.72;1.90;;;;;;;14.59;85.28;100636.56;5059506;28;20017;-77
2022/09/14 04:01:49;;;;;;;8.43;2.35;;;;;;;14.58;85.67;100640.16;5052376;28;20031;-78
2022/09/14 04:04:14;;;;;;;6.43;2.00;;;;;;;14.71;84.75;100640.53;5058238;28;20017;-78
2022/09/14 04:06:40;;;;;;;6.28;2.20;;;;;;;14.64;85.15;100644.75;5056455;28;20033;-78
2022/09/14 04:09:05;;;;;;;6.20;2.00;;;;;;;14.59;85.31;100644.41;5057926;28;20416;-78
2022/09/14 04:11:32;;;;;;;5.85;2.05;;;;;;;14.55;85.51;100645.66;5058123;28;20039;-78
2022/09/14 04:14:03;;;;;;;7.93;2.58;;;;;;;14.48;86.64;100649.88;5058769;28;20468;-79
2022/09/14 04:16:29;;;;;;;6.93;2.00;;;;;;;14.60;86.14;100648.63;5058022;28;20028;-77
2022/09/14 04:18:54;;;;;;;7.57;1.70;;;;;;;14.60;86.03;100638.19;5055189;28;20033;-77
2022/09/14 04:21:23;;;;;;;7.32;2.28;;;;;;;14.56;86.95;100640.28;5058523;28;20029;-78
2022/09/14 04:23:53;;;;;;;8.05;2.20;;;;;;;14.54;87.25;100638.81;5058336;28;20027;-78
2022/09/14 04:26:20;;;;;;;9.02;2.40;;;;;;;14.59;87.38;100636.56;5053429;28;20119;-78
2022/09/14 04:28:46;;;;;;;8.52;2.30;;;;;;;14.52;87.76;100619.91;5056026;28;20028;-78
2022/09/14 04:31:12;;;;;;;8.25;2.30;;;;;;;14.59;87.03;100620.91;5059675;28;20028;-78
2022/09/14 04:33:40;;;;;;;8.55;2.22;;;;;;;14.51;87.32;100623.50;5061137;28;20568;-78
2022/09/14 04:36:11;;;;;;;7.07;2.05;;;;;;;14.47;87.45;100616.94;5058447;28;20451;-78
2022/09/14 04:38:38;;;;;;;6.93;2.10;;;;;;;14.54;86.86;100607.50;5055378;28;20039;-79
2022/09/14 04:41:08;;;;;;;7.97;2.15;;;;;;;14.43;87.81;100610.34;5063471;28;20135;-79
2022/09/14 04:43:34;;;;;;;7.50;2.08;;;;;;;14.39;88.19;100603.78;5058820;28;20476;-78
2022/09/14 04:46:02;;;;;;;7.75;2.35;;;;;;;14.30;88.48;100605.56;5059907;28;20216;-77
2022/09/14 04:48:32;;;;;;;8.80;2.42;;;;;;;14.42;88.63;100606.09;5066587;28;20025;-78
2022/09/14 04:51:00;;;;;;;6.57;2.38;;;;;;;14.53;89.04;100618.91;5059854;28;20120;-78
2022/09/14 04:53:26;;;;;;;7.53;2.10;;;;;;;14.63;87.61;100613.59;5059267;28;20384;-78
2022/09/14 04:55:51;;;;;;;6.85;2.30;;;;;;;14.62;87.44;100610.13;5052754;28;20033;-77
2022/09/14 04:58:16;;;;;;;7.13;2.05;;;;;;;14.58;87.74;100607.03;5047086;28;20120;-78
2022/09/14 05:00:42;;;;;;;8.02;2.40;;;;;;;14.54;88.17;100612.72;5062022;28;20136;-79
2022/09/14 05:03:07;;;;;;;6.30;2.22;;;;;;;14.52;88.42;100604.25;5065942;28;20036;-78
2022/09/14 05:05:35;;;;;;;6.50;2.35;;;;;;;14.42;88.98;100598.28;5062897;28;20036;-78
2022/09/14 05:08:00;;;;;;;8.23;2.30;;;;;;;14.46;87.90;100594.41;5058966;28;20083;-78
2022/09/14 05:10:26;;;;;;;6.25;2.20;;;;;;;14.37;87.99;100592.72;5052984;28;20129;-78
2022/09/14 05:12:51;;;;;;;7.47;2.20;;;;;;;14.34;87.82;100592.06;5058691;28;20041;-79
2022/09/14 05:15:16;;;;;;;6.28;2.05;;;;;;;14.35;86.91;100588.47;5055228;28;20112;-78
2022/09/14 05:17:42;;;;;;;6.38;2.08;;;;;;;14.22;87.60;100580.25;5059574;28;20028;-78
2022/09/14 05:20:08;;;;;;;6.25;2.00;;;;;;;14.35;88.77;100593.69;5058192;28;20033;-80
2022/09/14 05:22:33;;;;;;;6.28;2.38;;;;;;;14.44;87.66;100596.31;5051345;28;20503;-79
2022/09/14 05:24:58;;;;;;;6.88;2.20;;;;;;;14.38;88.46;100587.31;5059652;28;20056;-78
2022/09/14 05:27:24;;;;;;;6.75;2.15;;;;;;;14.39;88.23;100588.13;5059320;28;20048;-80
2022/09/14 05:29:49;;;;;;;6.22;2.10;;;;;;;14.31;87.58;100587.13;5062300;28;20024;-80
2022/09/14 05:32:14;;;;;;;6.90;2.10;;;;;;;14.23;86.77;100581.88;5062556;28;20032;-78
2022/09/14 05:34:39;;;;;;;6.80;2.00;;;;;;;14.33;86.90;100600.84;5063502;28;20029;-78
2022/09/14 05:37:05;;;;;;;7.47;2.20;;;;;;;14.34;87.82;100596.47;5063608;28;20033;-78
2022/09/14 05:39:30;;;;;;;7.68;1.95;;;;;;;14.35;86.59;100609.34;5055398;28;20036;-79
2022/09/14 05:41:55;;;;;;;10.05;2.35;;;;;;;14.39;86.85;100609.84;5066599;28;20036;-78
2022/09/14 05:44:21;;;;;;;6.82;1.95;;;;;;;14.29;87.24;100594.31;5053160;28;20033;-78
2022/09/14 05:46:46;;;;;;;7.38;2.50;;;;;;;14.41;86.56;100601.88;5045636;28;20031;-78
2022/09/14 05:49:12;;;;;;;6.88;2.50;;;;;;;14.39;87.37;100598.56;5057459;28;20028;-78
2022/09/14 05:51:37;;;;;;;8.02;2.85;;;;;;;14.40;87.05;100597.63;5055556;28;20472;-78
2022/09/14 05:54:08;;;;;;;8.57;2.80;;;;;;;14.42;86.92;100608.72;5056721;28;20451;-78
2022/09/14 05:56:33;;;;;;;7.32;2.97;;;;;;;14.35;87.51;100609.34;5054112;28;20033;-78
2022/09/14 05:58:59;;;;;;;5.28;2.60;;;;;;;14.31;88.53;100615.03;5053226;28;20040;-78
2022/09/14 06:01:27;;;;;;;8.35;3.17;;;;;;;14.32;88.71;100617.47;5053291;28;20361;-79
2022/09/14 06:03:54;;;;;;;7.75;3.17;;;;;;;14.30;89.12;100611.59;5052576;28;20037;-78
2022/09/14 06:06:20;;;;;;;7.78;3.20;;;;;;;14.31;89.46;100613.22;5056020;28;20033;-79
2022/09/14 06:08:51;;;;;;;10.10;3.70;;;;;;;14.42;88.91;100613.94;5063812;28;21212;-79
2022/09/14 06:11:18;;;;;;;9.50;3.85;;;;;;;14.42;89.60;100613.94;5050952;28;20527;-78
2022/09/14 06:13:45;;;;;;;7.35;3.78;;;;;;;14.49;89.49;100620.19;5052607;28;20070;-79
2022/09/14 06:16:13;;;;;;;10.48;4.53;;;;;;;14.44;90.37;100617.19;5056324;28;20116;-79
2022/09/14 06:18:39;;;;;;;11.05;4.55;;;;;;;14.48;90.07;100618.56;5053515;28;20071;-79
2022/09/14 06:21:06;;;;;;;9.57;4.38;;;;;;;14.30;90.42;100610.78;5051886;28;20017;-78
2022/09/14 06:23:31;;;;;;;9.15;4.30;;;;;;;14.44;90.44;100611.97;5056236;28;20082;-78
2022/09/14 06:25:59;;;;;;;9.18;4.63;;;;;;;14.42;89.76;100614.75;5060976;28;20024;-78
2022/09/14 06:28:26;;;;;;;9.60;4.82;;;;;;;14.38;90.50;100615.22;5062021;28;20108;-78
2022/09/14 06:30:52;;;;;;;10.32;4.90;;;;;;;14.38;91.19;100607.38;5059731;28;20101;-78
2022/09/14 06:33:18;;;;;;;10.27;5.25;;;;;;;14.39;91.51;100609.00;5060932;28;20040;-78
2022/09/14 06:36:00;;;;;;;8.98;4.72;;;;;;;14.45;90.52;100608.38;5067667;28;20043;-78
2022/09/14 06:38:27;;;;;;;8.98;4.85;;;;;;;14.50;90.38;100606.16;5066286;28;20052;-78
2022/09/14 06:40:58;;;;;;;10.93;5.18;;;;;;;14.44;91.22;100606.75;5065714;28;20123;-78
2022/09/14 06:43:24;;;;;;;10.88;5.25;;;;;;;14.39;91.25;100609.00;5057058;28;20036;-78
2022/09/14 06:45:59;;;;;;;9.68;4.97;;;;;;;14.43;91.45;100615.56;5062716;28;20112;-78
2022/09/14 06:48:26;;;;;;;9.77;5.00;;;;;;;14.32;91.78;100607.03;5061192;28;20029;-79
2022/09/14 06:50:52;;;;;;;10.98;4.72;;;;;;;14.42;92.01;100608.72;5054444;28;20038;-78
2022/09/14 06:53:17;;;;;;;9.73;4.60;;;;;;;14.40;91.88;100611.50;5059629;28;20032;-79
2022/09/14 06:55:44;;;;;;;10.07;4.70;;;;;;;14.43;91.27;100621.59;5059425;28;20483;-78
2022/09/14 06:58:10;;;;;;;8.10;4.85;;;;;;;14.35;91.09;100619.78;5057572;28;20028;-78
2022/09/14 07:00:35;;;;;;;8.32;4.30;;;;;;;14.44;90.85;100617.19;5047601;28;20025;-78
2022/09/14 07:03:00;;;;;;;7.18;4.07;;;;;;;14.42;91.33;100608.72;5058599;28;20075;-73
2022/09/14 07:05:26;;;;;;;10.85;4.22;;;;;;;14.39;91.74;100603.78;5062011;28;20104;-78
2022/09/14 07:07:52;;;;;;;9.70;3.90;;;;;;;14.52;90.88;100599.03;5060870;28;20021;-74
2022/09/14 07:10:18;;;;;;;9.80;3.90;;;;;;;14.45;91.43;100604.03;5056626;28;20025;-74
2022/09/14 07:12:43;;;;;;;8.93;4.05;;;;;;;14.47;91.46;100601.28;5060285;28;20028;-74
2022/09/14 07:15:09;;;;;;;9.82;4.47;;;;;;;14.41;92.16;100604.47;5061674;28;20055;-77
2022/09/14 07:17:35;;;;;;;10.70;4.45;;;;;;;14.46;91.97;100594.41;5063550;28;20029;-74
2022/09/14 07:20:03;;;;;;;9.68;3.92;;;;;;;14.44;91.65;100597.13;5067283;28;20388;-73
2022/09/14 07:22:32;;;;;;;10.00;4.20;;;;;;;14.50;91.99;100593.13;5055919;28;20040;-74
2022/09/14 07:24:57;;;;;;;9.80;4.32;;;;;;;14.43;91.59;100589.47;5062072;28;20293;-74
2022/09/14 07:27:23;;;;;;;9.18;3.85;;;;;;;14.52;91.00;100596.41;5068762;28;20381;-74
2022/09/14 07:29:48;;;;;;;12.15;3.95;;;;;;;14.53;90.98;100600.66;5055244;28;20455;-78
2022/09/14 07:32:13;;;;;;;8.77;4.60;;;;;;;14.51;91.51;100586.94;5069514;28;20471;-76
2022/09/14 07:34:39;;;;;;;9.73;4.03;;;;;;;14.48;91.43;100592.47;5060573;28;20468;-75
2022/09/14 07:37:04;;;;;;;8.07;3.95;;;;;;;14.56;91.06;100585.47;5059777;28;20033;-74
2022/09/14 07:39:29;;;;;;;9.60;4.40;;;;;;;14.55;90.96;100588.25;5060131;28;20028;-75
2022/09/14 07:41:55;;;;;;;9.05;4.38;;;;;;;14.47;91.53;100580.41;5057143;28;20506;-73
2022/09/14 07:44:20;;;;;;;8.30;4.00;;;;;;;14.41;89.16;100573.16;5050926;28;20472;-75
2022/09/14 07:46:46;;;;;;;7.88;4.30;;;;;;;14.30;90.14;100563.81;5065824;28;20482;-74
2022/09/14 07:49:13;;;;;;;8.05;4.20;;;;;;;14.26;89.35;100568.50;5061636;28;20031;-75
2022/09/14 07:51:38;;;;;;;9.15;4.45;;;;;;;14.34;89.59;100581.63;5050011;28;20548;-75
2022/09/14 07:54:05;;;;;;;9.23;4.45;;;;;;;14.37;89.58;100600.53;5061374;28;20042;-74
2022/09/14 07:56:31;;;;;;;9.38;4.20;;;;;;;14.23;90.47;100583.69;5054048;28;20031;-75
2022/09/14 07:58:58;;;;;;;9.82;4.35;;;;;;;14.36;89.75;100594.50;5054174;28;20033;-74
2022/09/14 08:01:24;;;;;;;8.00;3.55;;;;;;;14.22;89.96;100582.88;5061732;28;20111;-74
2022/09/14 08:03:50;;;;;;;7.07;3.60;;;;;;;14.23;90.62;100581.88;5065855;28;20025;-74
2022/09/14 08:06:21;;;;;;;10.05;3.85;;;;;;;14.34;89.52;100586.84;5062172;28;20112;-75
2022/09/14 08:08:49;;;;;;;7.95;4.20;;;;;;;14.25;90.43;100587.75;5059791;28;20024;-75
2022/09/14 08:11:26;;;;;;;9.32;4.20;;;;;;;14.24;90.98;100580.91;5052187;28;20029;-74
2022/09/14 08:13:55;;;;;;;11.88;4.90;;;;;;;14.19;91.42;100588.38;5055853;28;20416;-74
2022/09/14 08:16:22;;;;;;;10.25;4.95;;;;;;;14.23;91.09;100574.06;5055881;28;20472;-74
2022/09/14 08:18:55;;;;;;;10.77;4.70;;;;;;;14.33;91.88;100590.41;5060571;28;20039;-76
2022/09/14 08:21:21;;;;;;;12.80;5.80;;;;;;;14.27;91.82;100579.78;5057068;28;20033;-77
2022/09/14 08:23:46;;;;;;;11.23;5.53;;;;;;;14.33;92.01;100579.97;5055611;28;20033;-74
2022/09/14 08:26:15;;;;;;;10.43;5.50;;;;;;;14.30;91.82;100579.47;5058248;28;20470;-76
2022/09/14 08:28:41;;;;;;;9.77;5.57;;;;;;;14.25;91.79;100579.94;5056114;28;20029;-74
2022/09/14 08:31:15;;;;;;;9.88;5.68;;;;;;;14.32;92.67;100587.94;5054996;28;20051;-74
2022/09/14 08:33:47;;;;;;;10.60;6.57;;;;;;;14.19;93.63;100572.72;5059031;28;20033;-74
2022/09/14 08:36:16;;;;;;;11.43;6.40;;;;;;;14.37;92.84;100580.47;5059721;28;20029;-74
2022/09/14 08:38:42;;;;;;;10.13;5.93;;;;;;;14.23;92.48;100571.44;5059270;28;20039;-75
2022/09/14 08:41:25;;;;;;;10.60;6.15;;;;;;;14.32;92.71;100580.94;5048266;28;20021;-74
2022/09/14 08:43:52;;;;;;;13.00;6.72;;;;;;;14.29;92.91;100578.66;5049622;28;20056;-77
2022/09/14 08:46:42;;;;;;;11.73;5.90;;;;;;;14.42;92.50;100582.63;5063744;28;20073;-74
2022/09/14 08:49:34;;;;;;;9.93;5.75;;;;;;;14.43;92.70;100589.47;5059663;28;20371;-73
2022/09/14 08:52:00;;;;;;;9.57;5.63;;;;;;;14.31;92.88;100574.09;5048800;28;20056;-74
2022/09/14 08:54:25;;;;;;;12.48;6.00;;;;;;;14.30;93.39;100584.69;5065898;28;20415;-73
2022/09/14 08:57:14;;;;;;;10.68;5.40;;;;;;;14.38;93.89;100576.06;5050808;28;20466;-75
2022/09/14 08:59:52;;;;;;;11.35;5.57;;;;;;;14.40;92.82;100574.16;5051733;28;20050;-74
2022/09/14 09:02:23;;;;;;;10.00;5.55;;;;;;;14.41;92.54;100581.00;5053601;28;20365;-73
2022/09/14 09:04:51;;;;;;;9.77;5.47;;;;;;;14.39;93.15;100580.31;5058291;28;20095;-74
2022/09/14 09:07:34;;;;;;;11.63;5.20;;;;;;;14.43;93.09;100579.03;5053345;28;20056;-73
2022/09/14 09:10:03;;;;;;;10.52;4.97;;;;;;;14.34;92.90;100571.19;5055903;28;20074;-74
2022/09/14 09:12:40;;;;;;;7.90;4.78;;;;;;;14.54;92.43;100582.22;5059571;28;20074;-76
2022/09/14 09:15:22;;;;;;;9.15;5.20;;;;;;;14.48;93.09;100582.84;5054518;28;20028;-76
2022/09/14 09:17:53;;;;;;;10.23;4.50;;;;;;;14.37;92.23;100584.88;5061747;28;20040;-75
2022/09/14 09:20:36;;;;;;;9.77;4.78;;;;;;;14.40;92.26;100574.16;5056917;28;20036;-74
2022/09/14 09:23:14;;;;;;;9.02;5.07;;;;;;;14.40;91.94;100574.16;5057026;28;20052;-74
2022/09/14 09:25:52;;;;;;;;;;;;;;;14.64;91.11;100576.88;5051359;28;20112;-76
2022/09/14 09:28:20;;;;;;;9.80;5.10;;;;;;;14.55;92.75;100575.19;5055277;28;20403;-73
2022/09/14 09:30:46;;;;;;;8.98;4.78;;;;;;;14.43;92.34;100569.41;5057769;28;20082;-74
2022/09/14 09:33:18;;;;;;;8.77;4.90;;;;;;;14.48;92.88;100563.75;5064820;28;20052;-74
2022/09/14 09:35:44;;;;;;;8.70;5.13;;;;;;;14.52;92.60;100557.28;5061804;28;20059;-73
2022/09/14 09:38:14;;;;;;;9.45;4.93;;;;;;;14.61;92.94;100561.53;5054821;28;20119;-76
2022/09/14 09:40:45;;;;;;;8.93;4.53;;;;;;;14.50;92.33;100556.59;5057647;28;20032;-74
2022/09/14 09:43:14;;;;;;;10.07;4.85;;;;;;;14.43;92.27;100558.16;5062984;28;20373;-73
2022/09/14 09:45:59;;;;;;;10.50;4.93;;;;;;;14.53;93.08;100559.72;5061316;28;20028;-73
2022/09/14 09:48:37;;;;;;;11.80;5.18;;;;;;;14.56;92.42;100553.34;5050858;28;20054;-74
2022/09/14 09:51:26;;;;;;;10.93;5.35;;;;;;;14.53;93.08;100553.69;5066582;28;20066;-74
2022/09/14 09:54:14;;;;;;;10.23;5.60;;;;;;;14.52;94.03;100559.88;5065801;28;20037;-73
2022/09/14 09:56:50;;;;;;;9.27;5.82;;;;;;;14.61;93.41;100566.75;5062992;28;20131;-73
2022/09/14 09:59:36;;;;;;;10.38;5.07;;;;;;;14.55;93.71;100562.16;5067303;28;20036;-73
2022/09/14 10:02:40;;;;;;;10.18;4.60;;;;;;;14.62;93.52;100555.31;5068737;28;20384;-73
2022/09/14 10:05:08;;;;;;;8.50;3.80;;;;;;;14.61;92.92;100561.53;5008544;28;20076;-74
2022/09/14 10:07:39;;;;;;;7.60;3.20;;;;;;;14.56;92.20;100558.56;5007477;28;20469;-74
2022/09/14 10:10:10;;;;;;;9.00;3.22;;;;;;;14.53;92.21;100554.50;5008384;28;20074;-73
2022/09/14 10:12:38;;;;;;;8.73;3.00;;;;;;;14.57;92.14;100555.81;5007780;28;20105;-76
2022/09/14 10:15:29;;;;;;;9.90;3.40;;;;;;;14.61;92.64;100557.13;5006836;28;20504;-73
2022/09/14 10:17:56;;;;;;;8.50;3.30;;;;;;;14.62;92.69;100560.53;5007382;28;20038;-75
2022/09/14 10:20:23;;;;;;;9.73;3.50;;;;;;;14.60;93.24;100565.94;5007711;28;20509;-73
2022/09/14 10:22:49;;;;;;;9.52;3.85;;;;;;;14.72;92.67;100558.63;5005899;28;20708;-76
2022/09/14 10:25:17;;;;;;;7.93;2.97;;;;;;;14.73;92.40;100560.25;5000599;28;20046;-73
2022/09/14 10:27:57;;;;;;;7.80;2.92;;;;;;;14.65;92.62;100556.81;5003119;28;20030;-73
2022/09/14 10:30:33;;;;;;;7.85;2.58;;;;;;;14.55;91.83;100551.72;4992453;28;20046;-73
2022/09/14 10:33:01;;;;;;;5.25;2.20;;;;;;;14.57;92.21;100544.56;5005842;28;20029;-74
2022/09/14 10:35:50;;;;;;;6.60;2.23;;;;;;;14.72;93.19;100558.63;5018589;28;20041;-75
2022/09/14 10:38:30;;;;;;;8.48;2.85;;;;;;;14.77;93.42;100561.59;5058615;28;20040;-73
2022/09/14 10:41:12;;;;;;;8.05;2.60;;;;;;;14.76;92.71;100569.59;5070087;28;20028;-74
2022/09/14 10:43:47;;;;;;;8.13;2.33;;;;;;;14.81;91.99;100556.88;5062269;28;20107;-73
2022/09/14 10:46:20;;;;;;;7.75;2.30;;;;;;;14.71;91.70;100557.00;5065688;28;20021;-73
2022/09/14 10:48:52;;;;;;;5.22;2.10;;;;;;;14.63;90.02;100570.03;5052875;28;20049;-73
2022/09/14 10:51:29;;;;;;;6.57;2.08;;;;;;;14.72;89.83;100558.63;5069093;28;20078;-73
2022/09/14 10:54:07;;;;;;;5.75;2.35;;;;;;;14.71;91.29;100557.00;5064140;28;20043;-73
2022/09/14 10:56:37;;;;;;;7.38;2.38;;;;;;;14.67;90.68;100555.66;5060192;28;20030;-73
2022/09/14 10:59:15;;;;;;;6.28;2.45;;;;;;;14.70;90.44;100557.97;5053898;28;20106;-73
2022/09/14 11:01:40;;;;;;;11.40;2.90;;;;;;;14.72;89.84;100558.63;5058464;28;20036;-74
2022/09/14 11:04:26;;;;;;;6.90;2.65;;;;;;;14.72;90.57;100561.25;5055033;28;20033;-74
2022/09/14 11:07:13;;;;;;;8.57;2.60;;;;;;;14.75;89.82;100563.53;5058838;28;20056;-73
2022/09/14 11:09:47;;;;;;;5.30;2.40;;;;;;;14.77;90.27;100561.59;5048832;28;20029;-76
2022/09/14 11:12:25;;;;;;;7.68;2.80;;;;;;;14.75;90.84;100553.09;5066005;28;20039;-73
2022/09/14 11:15:19;;;;;;;7.07;2.63;;;;;;;14.78;90.65;100555.38;5055354;28;20029;-74
2022/09/14 11:18:05;;;;;;;7.55;2.70;;;;;;;14.82;91.20;100556.72;5036570;28;20041;-73
2022/09/14 11:20:37;;;;;;;8.68;2.83;;;;;;;14.69;91.43;100548.53;5055638;28;20020;-73
2022/09/14 11:23:19;;;;;;;6.07;2.72;;;;;;;14.77;92.22;100555.53;5059629;28;20032;-73
2022/09/14 11:25:53;;;;;;;8.23;3.28;;;;;;;14.76;91.19;100565.19;5053504;28;20024;-73
2022/09/14 11:28:37;;;;;;;5.97;2.80;;;;;;;14.64;90.24;100561.22;5062209;28;20052;-72
2022/09/14 11:31:09;;;;;;;8.98;3.30;;;;;;;14.81;91.23;100565.53;5056224;28;20032;-73
2022/09/14 11:33:42;;;;;;;7.82;3.10;;;;;;;14.80;90.64;100571.72;5076055;28;20377;-74
2022/09/14 11:36:25;;;;;;;7.35;2.90;;;;;;;14.78;90.64;100568.44;5061600;28;20028;-73
2022/09/14 11:39:00;;;;;;;7.25;2.67;;;;;;;14.92;89.82;100566.22;5053812;28;20341;-72
2022/09/14 11:41:37;;;;;;;7.97;2.83;;;;;;;14.95;88.86;100556.25;5051171;28;20111;-72